Time;durP1;ratioP1;P1;durP2;ratioP2;P2;SDS_P1;SDS_P2;PMS_P1;PMS_P2;Temp;Humidity;BMP_temperature;BMP_pressure;BME280_temperature;BME280_humidity;BME280_pressure;Samples;Min_cycle;Max_cycle;Signal;HPM_P1;HPM_P2
2022/03/09 00:02:22;;;;;;;18.35;8.20;;;-1.70;98.70;;;;;;5053809;28;20025;-70
2022/03/09 00:04:48;;;;;;;11.98;6.60;;;-1.70;99.20;;;;;;5053111;28;20032;-70
2022/03/09 00:07:13;;;;;;;10.32;5.80;;;-1.80;99.30;;;;;;5054073;28;20048;-70
2022/03/09 00:09:39;;;;;;;14.82;6.22;;;-1.80;99.50;;;;;;5053015;28;20055;-68
2022/03/09 00:12:06;;;;;;;12.85;6.90;;;-1.90;99.80;;;;;;5053871;28;20382;-70
2022/03/09 00:14:31;;;;;;;18.92;8.02;;;-1.90;99.90;;;;;;5053521;28;20032;-70
2022/03/09 00:16:57;;;;;;;14.60;6.65;;;-1.90;99.90;;;;;;5052947;28;20021;-71
2022/03/09 00:19:24;;;;;;;11.80;6.05;;;-2.00;99.90;;;;;;5053355;28;20110;-70
2022/03/09 00:21:50;;;;;;;12.00;6.45;;;-2.00;99.90;;;;;;5052789;28;20036;-69
2022/03/09 00:24:17;;;;;;;12.02;6.22;;;-2.10;99.90;;;;;;5053536;28;20029;-70
2022/03/09 00:26:43;;;;;;;12.57;5.97;;;-2.10;99.90;;;;;;5052711;28;20446;-70
2022/03/09 00:29:09;;;;;;;11.90;6.38;;;-2.10;99.90;;;;;;5053388;28;20104;-70
2022/03/09 00:31:35;;;;;;;12.45;6.95;;;-2.10;99.90;;;;;;5053598;28;20027;-70
2022/03/09 00:34:00;;;;;;;12.60;6.78;;;-2.10;99.90;;;;;;5051226;28;20397;-70
2022/03/09 00:36:26;;;;;;;13.43;6.80;;;-2.10;99.90;;;;;;5052927;28;20484;-70
2022/03/09 00:38:52;;;;;;;11.18;5.78;;;-2.10;99.90;;;;;;5052182;28;20029;-69
2022/03/09 00:41:17;;;;;;;13.60;6.70;;;-2.10;99.90;;;;;;5053252;28;20032;-70
2022/03/09 00:43:43;;;;;;;10.52;5.70;;;-2.10;99.90;;;;;;5051939;28;20048;-70
2022/03/09 00:46:09;;;;;;;10.77;6.13;;;-2.10;99.90;;;;;;5053086;28;20029;-71
2022/03/09 00:48:35;;;;;;;15.88;7.25;;;-2.10;99.90;;;;;;5052874;28;20448;-70
2022/03/09 00:51:01;;;;;;;11.07;7.18;;;-2.20;99.90;;;;;;5052023;28;20439;-71
2022/03/09 00:53:26;;;;;;;12.45;6.53;;;-2.20;99.90;;;;;;5051886;28;20500;-70
2022/03/09 00:55:52;;;;;;;15.07;7.25;;;-2.20;99.90;;;;;;5051904;28;20086;-71
2022/03/09 00:58:17;;;;;;;14.23;6.50;;;-2.20;99.90;;;;;;5052778;28;20060;-69
2022/03/09 01:00:43;;;;;;;16.05;7.60;;;-2.20;99.90;;;;;;5052438;28;20021;-69
2022/03/09 01:03:09;;;;;;;15.13;7.10;;;-2.10;99.90;;;;;;5053118;28;20037;-70
2022/03/09 01:05:34;;;;;;;15.75;7.80;;;-2.20;99.90;;;;;;5052917;28;20049;-70
2022/03/09 01:08:00;;;;;;;14.85;7.57;;;-2.20;99.90;;;;;;5050794;28;20561;-70
2022/03/09 01:10:27;;;;;;;18.90;8.15;;;-2.20;99.90;;;;;;5052350;28;20496;-69
2022/03/09 01:12:52;;;;;;;20.23;10.10;;;-2.30;99.90;;;;;;5050617;28;20546;-69
2022/03/09 01:15:18;;;;;;;15.88;7.95;;;-2.40;99.90;;;;;;5052264;28;20083;-70
2022/03/09 01:17:44;;;;;;;16.50;7.50;;;-2.40;99.90;;;;;;5051799;28;20021;-69
2022/03/09 01:20:10;;;;;;;13.27;7.25;;;-2.50;99.90;;;;;;5052692;28;20037;-69
2022/03/09 01:22:36;;;;;;;13.70;6.75;;;-2.50;99.90;;;;;;5052386;28;20033;-70
2022/03/09 01:25:02;;;;;;;18.42;8.45;;;-2.50;99.90;;;;;;5051232;28;20098;-69
2022/03/09 01:27:28;;;;;;;12.73;7.00;;;-2.50;99.90;;;;;;5052443;28;20079;-70
2022/03/09 01:29:54;;;;;;;12.50;6.93;;;-2.50;99.90;;;;;;5051726;28;20029;-69
2022/03/09 01:32:21;;;;;;;15.27;7.53;;;-2.50;99.90;;;;;;5051331;28;20025;-70
2022/03/09 01:34:48;;;;;;;14.30;7.03;;;-2.50;99.90;;;;;;5051521;28;20025;-70
2022/03/09 01:37:13;;;;;;;16.33;7.22;;;-2.60;99.90;;;;;;5051977;28;20029;-70
2022/03/09 01:39:39;;;;;;;12.85;6.75;;;-2.60;99.90;;;;;;5051968;28;20098;-68
2022/03/09 01:42:05;;;;;;;17.60;7.65;;;-2.60;99.90;;;;;;5051693;28;20116;-71
2022/03/09 01:44:31;;;;;;;16.48;7.43;;;-2.70;99.90;;;;;;5051989;28;20121;-70
2022/03/09 01:46:56;;;;;;;15.10;7.63;;;-2.80;99.90;;;;;;5051305;28;20041;-69
2022/03/09 01:49:23;;;;;;;15.70;8.63;;;-2.80;99.90;;;;;;5051681;28;20455;-70
2022/03/09 01:51:51;;;;;;;18.92;8.13;;;-2.80;99.90;;;;;;5051187;28;20115;-69
2022/03/09 01:54:17;;;;;;;15.82;8.48;;;-2.80;99.90;;;;;;5051424;28;20036;-70
2022/03/09 01:56:43;;;;;;;16.25;8.20;;;-2.70;99.90;;;;;;5051040;28;20036;-69
2022/03/09 01:59:10;;;;;;;20.85;8.45;;;-2.70;99.90;;;;;;5050866;28;20060;-70
2022/03/09 02:01:37;;;;;;;14.63;8.30;;;-2.70;99.90;;;;;;5051794;28;20116;-71
2022/03/09 02:04:04;;;;;;;19.85;7.68;;;-2.70;99.90;;;;;;5050790;28;20040;-71
2022/03/09 02:06:31;;;;;;;16.02;7.22;;;-2.80;99.90;;;;;;5051790;28;20029;-71
2022/03/09 02:11:42;;;;;;;18.75;8.27;;;-2.70;99.90;;;;;;5051434;28;20027;-70
2022/03/09 02:14:39;;;;;;;17.92;7.65;;;-2.60;99.90;;;;;;5051601;28;20078;-70
2022/03/09 02:17:07;;;;;;;12.27;6.35;;;-2.50;99.90;;;;;;5046268;28;20131;-70
2022/03/09 02:19:34;;;;;;;11.57;6.82;;;-2.40;99.90;;;;;;5051342;28;20025;-71
2022/03/09 02:22:20;;;;;;;13.75;7.15;;;-2.30;99.90;;;;;;5050849;28;20216;-70
2022/03/09 02:24:47;;;;;;;13.30;7.13;;;-2.30;99.90;;;;;;5050775;28;20029;-70
2022/03/09 02:27:12;;;;;;;14.18;6.93;;;-2.20;99.90;;;;;;5051503;28;20486;-70
2022/03/09 02:29:38;;;;;;;11.80;6.88;;;-2.20;99.90;;;;;;5051687;28;20029;-70
2022/03/09 02:32:05;;;;;;;14.15;7.30;;;-2.20;99.90;;;;;;5050819;28;20028;-71
2022/03/09 02:34:31;;;;;;;13.68;7.43;;;-2.30;99.90;;;;;;5051480;28;20029;-70
2022/03/09 02:36:57;;;;;;;12.32;6.68;;;-2.30;99.90;;;;;;5049407;28;20028;-70
2022/03/09 02:39:23;;;;;;;12.45;6.55;;;-2.40;99.90;;;;;;5050055;28;20021;-71
2022/03/09 02:41:48;;;;;;;12.60;6.63;;;-2.40;99.90;;;;;;5046303;28;20033;-71
2022/03/09 02:44:14;;;;;;;14.70;6.95;;;-2.50;99.90;;;;;;5049764;28;20047;-70
2022/03/09 02:46:40;;;;;;;12.48;6.88;;;-2.60;99.90;;;;;;5050049;28;20116;-71
2022/03/09 02:49:06;;;;;;;13.82;7.43;;;-2.70;99.90;;;;;;5049812;28;20021;-70
2022/03/09 02:51:32;;;;;;;16.17;7.53;;;-2.80;99.90;;;;;;5049978;28;20017;-71
2022/03/09 02:53:58;;;;;;;12.30;6.45;;;-2.80;99.90;;;;;;5049167;28;20025;-71
2022/03/09 02:56:24;;;;;;;13.85;6.85;;;-2.90;99.90;;;;;;5050235;28;20390;-70
2022/03/09 02:58:50;;;;;;;12.52;6.68;;;-2.90;99.90;;;;;;5049224;28;20041;-70
2022/03/09 03:01:15;;;;;;;13.10;6.90;;;-3.00;99.90;;;;;;5049989;28;20029;-71
2022/03/09 03:03:42;;;;;;;13.48;6.60;;;-3.10;99.90;;;;;;5050120;28;20062;-70
2022/03/09 03:06:12;;;;;;;16.05;7.15;;;-3.10;99.90;;;;;;5050653;28;20033;-70
2022/03/09 03:08:39;;;;;;;13.35;6.95;;;-3.20;99.90;;;;;;5051323;28;20033;-70
2022/03/09 03:11:06;;;;;;;13.48;6.82;;;-3.20;99.90;;;;;;5049991;28;20643;-70
2022/03/09 03:13:32;;;;;;;15.50;7.03;;;-3.30;99.90;;;;;;5050520;28;20029;-70
2022/03/09 03:15:58;;;;;;;13.65;7.03;;;-3.30;99.90;;;;;;5048863;28;20078;-70
2022/03/09 03:18:24;;;;;;;14.63;7.10;;;-3.30;99.90;;;;;;5049727;28;20466;-69
2022/03/09 03:20:54;;;;;;;13.13;6.63;;;-3.30;99.90;;;;;;5049123;28;20025;-69
2022/03/09 03:23:30;;;;;;;15.18;7.03;;;-3.30;99.90;;;;;;5049678;28;20394;-70
2022/03/09 03:25:56;;;;;;;14.55;6.75;;;-3.30;99.90;;;;;;5046616;28;20421;-70
2022/03/09 03:28:23;;;;;;;13.82;7.25;;;-3.20;99.90;;;;;;5049744;28;20049;-71
2022/03/09 03:30:50;;;;;;;13.85;7.38;;;-3.20;99.90;;;;;;5050058;28;20025;-70
2022/03/09 03:33:17;;;;;;;11.63;6.32;;;-3.30;99.90;;;;;;5053234;28;20036;-70
2022/03/09 03:35:44;;;;;;;15.32;7.40;;;-3.20;99.90;;;;;;5052920;28;20017;-70
2022/03/09 03:38:10;;;;;;;15.07;7.45;;;-3.20;99.90;;;;;;5054307;28;20026;-71
2022/03/09 03:40:36;;;;;;;12.70;6.53;;;-3.20;99.90;;;;;;5055129;28;20091;-70
2022/03/09 03:43:02;;;;;;;12.77;7.63;;;-3.20;99.90;;;;;;5053517;28;20029;-70
2022/03/09 03:45:28;;;;;;;13.65;6.57;;;-3.20;99.90;;;;;;5054513;28;20133;-71
2022/03/09 03:47:54;;;;;;;12.50;6.47;;;-3.20;99.90;;;;;;5053455;28;20056;-70
2022/03/09 03:50:20;;;;;;;10.80;6.43;;;-3.20;99.90;;;;;;5054526;28;20454;-70
2022/03/09 03:52:46;;;;;;;13.27;6.63;;;-3.20;99.90;;;;;;5053503;28;20513;-69
2022/03/09 03:55:12;;;;;;;14.77;6.68;;;-3.20;99.90;;;;;;5053894;28;20096;-70
2022/03/09 03:57:38;;;;;;;16.67;7.78;;;-3.20;99.90;;;;;;5054303;28;20068;-70
2022/03/09 04:00:05;;;;;;;15.80;7.20;;;-3.10;99.90;;;;;;5053051;28;20613;-70
2022/03/09 04:02:31;;;;;;;12.85;7.25;;;-3.20;99.90;;;;;;5053945;28;20029;-70
2022/03/09 04:04:56;;;;;;;11.98;6.20;;;-3.20;99.90;;;;;;5053447;28;20115;-71
2022/03/09 04:07:22;;;;;;;13.68;7.07;;;-3.30;99.90;;;;;;5054020;28;20045;-70
2022/03/09 04:09:48;;;;;;;16.60;6.80;;;-3.30;99.90;;;;;;5053268;28;20025;-70
2022/03/09 04:12:13;;;;;;;14.02;7.43;;;-3.40;99.90;;;;;;5053790;28;20025;-70
2022/03/09 04:14:39;;;;;;;14.48;7.03;;;-3.40;99.90;;;;;;5053803;28;20021;-70
2022/03/09 04:17:05;;;;;;;15.77;7.28;;;-3.40;99.90;;;;;;5053202;28;20285;-71
2022/03/09 04:19:30;;;;;;;13.18;7.18;;;-3.50;99.90;;;;;;5054107;28;20040;-69
2022/03/09 04:21:56;;;;;;;12.48;6.30;;;-3.50;99.90;;;;;;5052924;28;20032;-70
2022/03/09 04:24:22;;;;;;;13.18;6.63;;;-3.60;99.90;;;;;;5053686;28;20053;-70
2022/03/09 04:26:47;;;;;;;15.82;7.20;;;-3.70;99.90;;;;;;5052533;28;20112;-70
2022/03/09 04:29:13;;;;;;;13.52;7.15;;;-3.70;99.90;;;;;;5053301;28;20029;-70
2022/03/09 04:31:40;;;;;;;13.85;6.78;;;-3.80;99.90;;;;;;5053560;28;20017;-70
2022/03/09 04:34:05;;;;;;;22.05;10.35;;;-3.90;99.90;;;;;;5052739;28;20215;-70
2022/03/09 04:36:32;;;;;;;41.90;16.05;;;-3.90;99.90;;;;;;5053165;28;20059;-70
2022/03/09 04:38:58;;;;;;;35.53;14.82;;;-4.00;99.90;;;;;;5052521;28;20033;-69
2022/03/09 04:41:23;;;;;;;22.70;10.57;;;-3.90;99.90;;;;;;5052818;28;20116;-69
2022/03/09 04:43:49;;;;;;;23.27;10.95;;;-3.90;99.90;;;;;;5050995;28;20028;-69
2022/03/09 04:46:16;;;;;;;25.90;11.48;;;-3.90;99.90;;;;;;5052997;28;20036;-69
2022/03/09 04:48:42;;;;;;;18.88;9.88;;;-3.90;99.90;;;;;;5053400;28;20029;-69
2022/03/09 04:51:08;;;;;;;22.52;9.15;;;-3.80;99.90;;;;;;5052577;28;20112;-70
2022/03/09 04:53:34;;;;;;;20.20;10.05;;;-3.80;99.90;;;;;;5053000;28;20174;-70
2022/03/09 04:56:00;;;;;;;14.93;8.05;;;-3.80;99.90;;;;;;5052260;28;20033;-70
2022/03/09 04:58:25;;;;;;;16.58;8.50;;;-3.80;99.90;;;;;;5052640;28;20033;-69
2022/03/09 05:00:52;;;;;;;15.25;8.25;;;-3.90;99.90;;;;;;5052239;28;20454;-69
2022/03/09 05:03:18;;;;;;;18.20;7.93;;;-3.90;99.90;;;;;;5052895;28;20488;-69
2022/03/09 05:05:44;;;;;;;18.92;8.18;;;-3.90;99.90;;;;;;5052736;28;20037;-69
2022/03/09 05:08:10;;;;;;;17.63;8.30;;;-4.00;99.90;;;;;;5052206;28;20029;-70
2022/03/09 05:10:36;;;;;;;18.58;7.80;;;-4.00;99.90;;;;;;5052882;28;20120;-71
2022/03/09 05:13:02;;;;;;;21.33;10.30;;;-4.00;99.90;;;;;;5050409;28;20561;-71
2022/03/09 05:15:28;;;;;;;19.63;9.23;;;-3.80;99.90;;;;;;5052752;28;20032;-71
2022/03/09 05:17:54;;;;;;;23.52;10.40;;;-3.70;99.90;;;;;;5051821;28;20082;-71
2022/03/09 05:20:20;;;;;;;21.70;8.88;;;-3.70;99.90;;;;;;5052630;28;20075;-70
2022/03/09 05:22:47;;;;;;;20.25;9.52;;;-3.70;99.90;;;;;;5052181;28;20485;-71
2022/03/09 05:25:13;;;;;;;16.98;8.25;;;-3.80;99.90;;;;;;5052446;28;20062;-71
2022/03/09 05:27:39;;;;;;;18.60;8.95;;;-3.90;99.90;;;;;;5052331;28;20024;-70
2022/03/09 05:30:07;;;;;;;17.98;9.63;;;-3.90;99.90;;;;;;5051476;28;20024;-70
2022/03/09 05:32:32;;;;;;;20.13;9.77;;;-4.00;99.90;;;;;;5052094;28;20025;-71
2022/03/09 05:34:58;;;;;;;19.10;9.57;;;-4.00;99.90;;;;;;5051495;28;20070;-70
2022/03/09 05:37:24;;;;;;;21.98;10.98;;;-4.10;99.90;;;;;;5052394;28;20056;-70
2022/03/09 05:39:50;;;;;;;22.58;9.60;;;-4.10;99.90;;;;;;5051499;28;20025;-69
2022/03/09 05:42:15;;;;;;;19.13;9.15;;;-4.00;99.90;;;;;;5052159;28;20487;-70
2022/03/09 05:44:41;;;;;;;15.23;8.23;;;-4.00;99.90;;;;;;5052305;28;20037;-71
2022/03/09 05:47:07;;;;;;;24.42;10.38;;;-4.00;99.90;;;;;;5051339;28;20612;-70
2022/03/09 05:49:33;;;;;;;17.42;8.32;;;-4.00;99.90;;;;;;5052132;28;20029;-71
2022/03/09 05:51:59;;;;;;;17.02;8.27;;;-4.00;99.90;;;;;;5051393;28;20032;-70
2022/03/09 05:54:24;;;;;;;22.00;10.23;;;-4.00;99.90;;;;;;5051377;28;20021;-71
2022/03/09 05:56:50;;;;;;;21.08;10.65;;;-4.00;99.90;;;;;;5049999;28;20437;-69
2022/03/09 05:59:17;;;;;;;25.40;10.10;;;-4.10;99.90;;;;;;5051344;28;20049;-71
2022/03/09 06:01:43;;;;;;;22.63;9.90;;;-4.10;99.90;;;;;;5052014;28;20021;-71
2022/03/09 06:04:09;;;;;;;24.15;10.77;;;-4.10;99.90;;;;;;5050905;28;20566;-71
2022/03/09 06:06:34;;;;;;;29.55;11.30;;;-4.20;99.90;;;;;;5051843;28;20063;-71
2022/03/09 06:09:00;;;;;;;26.67;11.30;;;-4.20;99.90;;;;;;5050890;28;20036;-71
2022/03/09 06:11:27;;;;;;;20.25;9.90;;;-4.20;99.90;;;;;;5051823;28;20037;-70
2022/03/09 06:13:52;;;;;;;24.95;10.13;;;-4.10;99.90;;;;;;5050826;28;20033;-70
2022/03/09 06:16:18;;;;;;;21.52;9.13;;;-4.10;99.90;;;;;;5050671;28;20086;-71
2022/03/09 06:18:46;;;;;;;18.98;9.15;;;-4.10;99.90;;;;;;5051662;28;20029;-71
2022/03/09 06:21:13;;;;;;;20.52;9.38;;;-4.00;99.90;;;;;;5050734;28;20036;-70
2022/03/09 06:23:39;;;;;;;20.70;9.32;;;-4.00;99.90;;;;;;5050414;28;20033;-71
2022/03/09 06:26:05;;;;;;;21.27;10.70;;;-4.00;99.90;;;;;;5051112;28;20064;-72
2022/03/09 06:28:31;;;;;;;22.33;9.75;;;-3.90;99.90;;;;;;5051270;28;20378;-70
2022/03/09 06:30:57;;;;;;;26.42;10.45;;;-3.80;99.90;;;;;;5050859;28;20028;-70
2022/03/09 06:33:23;;;;;;;20.52;9.35;;;-3.70;99.90;;;;;;5051613;28;20032;-71
2022/03/09 06:35:49;;;;;;;20.65;9.15;;;-3.70;99.90;;;;;;5051704;28;20036;-69
2022/03/09 06:38:15;;;;;;;22.10;9.43;;;-3.60;99.90;;;;;;5051159;28;20441;-71
2022/03/09 06:40:42;;;;;;;21.05;10.52;;;-3.50;99.90;;;;;;5051844;28;20029;-74
2022/03/09 06:43:07;;;;;;;18.77;10.27;;;-3.30;99.90;;;;;;5050977;28;20025;-76
2022/03/09 06:45:34;;;;;;;19.90;10.40;;;-3.20;99.90;;;;;;5050816;28;20409;-71
2022/03/09 06:48:01;;;;;;;22.58;9.45;;;-3.20;99.90;;;;;;5050537;28;20021;-68
2022/03/09 06:50:27;;;;;;;20.48;9.73;;;-3.10;99.90;;;;;;5051345;28;20029;-68
2022/03/09 06:52:53;;;;;;;28.90;10.98;;;-3.10;99.90;;;;;;5050661;28;20025;-68
2022/03/09 06:55:18;;;;;;;30.67;12.50;;;-3.00;99.90;;;;;;5051096;28;20025;-68
2022/03/09 06:57:44;;;;;;;32.85;12.05;;;-2.90;99.90;;;;;;5051335;28;20481;-69
2022/03/09 07:00:12;;;;;;;22.50;10.82;;;-2.80;99.90;;;;;;5048712;28;20162;-68
2022/03/09 07:02:38;;;;;;;24.50;11.45;;;-2.60;99.90;;;;;;5057750;28;20025;-67
2022/03/09 07:05:05;;;;;;;26.35;13.27;;;-2.50;99.90;;;;;;5052712;28;20025;-67
2022/03/09 07:07:32;;;;;;;23.98;11.52;;;-2.30;99.90;;;;;;5054968;28;20168;-66
2022/03/09 07:09:58;;;;;;;27.25;11.60;;;-2.10;99.90;;;;;;5053785;28;20378;-66
2022/03/09 07:12:23;;;;;;;21.77;11.57;;;-2.00;99.90;;;;;;5054625;28;20029;-66
2022/03/09 07:14:49;;;;;;;23.85;11.65;;;-1.80;99.90;;;;;;5054409;28;20090;-66
2022/03/09 07:17:15;;;;;;;22.13;10.90;;;-1.70;99.90;;;;;;5053985;28;20386;-66
2022/03/09 07:19:41;;;;;;;24.05;11.50;;;-1.70;99.90;;;;;;5054355;28;20075;-67
2022/03/09 07:22:06;;;;;;;23.02;11.57;;;-1.60;99.90;;;;;;5053667;28;20074;-66
2022/03/09 07:24:33;;;;;;;23.80;11.38;;;-1.60;99.90;;;;;;5053987;28;20025;-67
2022/03/09 07:26:58;;;;;;;25.08;12.38;;;-1.50;99.90;;;;;;5053893;28;20037;-67
2022/03/09 07:29:24;;;;;;;27.23;12.20;;;-1.40;99.90;;;;;;5054420;28;20031;-67
2022/03/09 07:31:51;;;;;;;20.95;11.70;;;-1.20;99.90;;;;;;5064746;28;20082;-70
2022/03/09 07:34:16;;;;;;;24.90;11.13;;;-1.20;99.90;;;;;;5073493;28;20469;-71
2022/03/09 07:36:42;;;;;;;28.73;13.18;;;-1.00;99.90;;;;;;5074456;28;20044;-70
2022/03/09 07:39:09;;;;;;;28.40;13.60;;;-0.90;99.90;;;;;;5073746;28;20075;-71
2022/03/09 07:41:35;;;;;;;19.67;10.93;;;-0.80;99.90;;;;;;5074251;28;20032;-68
2022/03/09 07:44:01;;;;;;;26.08;11.18;;;-0.70;99.90;;;;;;5064885;28;20083;-66
2022/03/09 07:46:26;;;;;;;27.17;11.48;;;-0.60;99.90;;;;;;5053934;28;20041;-66
2022/03/09 07:48:52;;;;;;;29.95;12.90;;;-0.50;99.90;;;;;;5053891;28;20036;-66
2022/03/09 07:51:18;;;;;;;26.63;12.05;;;-0.40;99.90;;;;;;5053257;28;20033;-66
2022/03/09 07:53:44;;;;;;;32.53;12.65;;;-0.30;99.90;;;;;;5054007;28;20112;-66
2022/03/09 07:56:10;;;;;;;22.73;11.60;;;-0.20;99.90;;;;;;5053340;28;20142;-66
2022/03/09 07:58:37;;;;;;;21.83;12.05;;;-0.10;99.90;;;;;;5053903;28;20049;-66
2022/03/09 08:01:02;;;;;;;27.15;11.88;;;0.00;99.90;;;;;;5056394;28;20024;-66
2022/03/09 08:03:28;;;;;;;23.13;13.80;;;0.00;99.90;;;;;;5068925;28;20040;-66
2022/03/09 08:05:53;;;;;;;22.77;11.65;;;0.10;99.90;;;;;;5053051;28;20037;-66
2022/03/09 08:08:19;;;;;;;30.13;12.52;;;0.10;99.90;;;;;;5053222;28;20025;-66
2022/03/09 08:10:45;;;;;;;22.25;11.57;;;0.30;99.70;;;;;;5053505;28;20025;-66
2022/03/09 08:13:10;;;;;;;24.92;12.90;;;0.30;99.50;;;;;;5052880;28;20027;-66
2022/03/09 08:15:37;;;;;;;24.23;12.48;;;0.50;98.90;;;;;;5053821;28;20036;-66
2022/03/09 08:18:03;;;;;;;24.33;12.82;;;0.70;98.30;;;;;;5052010;28;20125;-64
2022/03/09 08:20:29;;;;;;;22.88;12.05;;;0.80;97.80;;;;;;5053466;28;20025;-65
2022/03/09 08:22:55;;;;;;;29.20;12.25;;;1.00;97.20;;;;;;5053006;28;20036;-65
2022/03/09 08:25:20;;;;;;;24.10;12.95;;;1.20;95.90;;;;;;5052987;28;20021;-65
2022/03/09 08:27:46;;;;;;;27.27;11.45;;;1.40;95.10;;;;;;5053496;28;20040;-65
2022/03/09 08:30:12;;;;;;;18.35;10.00;;;1.50;94.30;;;;;;5052582;28;20082;-65
2022/03/09 08:32:38;;;;;;;19.42;9.90;;;1.70;92.60;;;;;;5070456;28;20423;-66
2022/03/09 08:35:04;;;;;;;17.25;9.35;;;1.80;91.00;;;;;;5072453;28;20024;-67
2022/03/09 08:37:30;;;;;;;16.60;8.70;;;2.00;90.40;;;;;;5073435;28;20059;-66
2022/03/09 08:39:56;;;;;;;15.32;9.20;;;2.10;89.60;;;;;;5072387;28;20461;-65
2022/03/09 08:42:22;;;;;;;14.10;9.02;;;2.20;88.60;;;;;;5072896;28;20043;-65
2022/03/09 08:44:48;;;;;;;20.10;9.18;;;2.40;86.30;;;;;;5059768;28;20025;-65
2022/03/09 08:47:13;;;;;;;18.50;8.60;;;2.60;83.50;;;;;;5051559;28;20749;-65
2022/03/09 08:49:40;;;;;;;13.95;8.95;;;2.80;81.60;;;;;;5054564;28;20029;-65
2022/03/09 08:52:11;;;;;;;19.13;11.32;;;2.90;80.40;;;;;;5053147;28;20484;-65
2022/03/09 08:54:37;;;;;;;19.95;11.30;;;3.20;80.40;;;;;;5053596;28;20029;-65
2022/03/09 08:57:04;;;;;;;19.30;9.48;;;3.40;79.70;;;;;;5052144;28;20091;-65
2022/03/09 08:59:30;;;;;;;23.67;10.57;;;3.60;75.30;;;;;;5052827;28;20057;-66
2022/03/09 09:01:56;;;;;;;16.70;8.90;;;3.80;76.30;;;;;;5063634;28;20039;-65
2022/03/09 09:04:22;;;;;;;18.08;10.38;;;3.90;73.30;;;;;;5072358;28;20036;-66
2022/03/09 09:06:48;;;;;;;22.23;10.55;;;4.10;74.30;;;;;;5060692;28;20083;-66
2022/03/09 09:09:14;;;;;;;22.60;11.10;;;4.20;73.60;;;;;;5051146;28;20029;-66
2022/03/09 09:11:40;;;;;;;19.58;10.40;;;4.30;72.70;;;;;;5052334;28;20036;-66
2022/03/09 09:14:06;;;;;;;17.25;9.98;;;4.40;71.90;;;;;;5051493;28;20078;-66
2022/03/09 09:16:33;;;;;;;17.77;8.65;;;4.50;70.90;;;;;;5052287;28;20036;-66
2022/03/09 09:18:58;;;;;;;15.32;8.75;;;4.50;69.50;;;;;;5051524;28;20025;-65
2022/03/09 09:21:24;;;;;;;16.25;9.18;;;4.60;69.10;;;;;;5052406;28;20029;-66
2022/03/09 09:23:50;;;;;;;21.50;9.27;;;4.70;68.30;;;;;;5052626;28;20516;-66
2022/03/09 09:26:18;;;;;;;16.35;9.10;;;4.70;67.70;;;;;;5051466;28;20843;-66
2022/03/09 09:28:44;;;;;;;19.33;10.15;;;4.90;67.00;;;;;;5051272;28;20032;-67
2022/03/09 09:31:09;;;;;;;20.55;10.63;;;5.00;67.40;;;;;;5056508;28;20024;-66
2022/03/09 09:33:35;;;;;;;20.42;10.38;;;5.10;66.40;;;;;;5071932;28;20449;-67
2022/03/09 09:36:02;;;;;;;23.08;9.90;;;5.20;66.40;;;;;;5071319;28;20372;-66
2022/03/09 09:38:28;;;;;;;19.20;10.60;;;5.30;65.70;;;;;;5071851;28;20470;-65
2022/03/09 09:40:55;;;;;;;18.48;9.70;;;5.50;65.10;;;;;;5072165;28;20097;-65
2022/03/09 09:43:21;;;;;;;16.35;9.55;;;5.60;64.50;;;;;;5069757;28;20373;-65
2022/03/09 09:45:47;;;;;;;18.35;11.27;;;5.70;65.10;;;;;;5051820;28;20037;-66
2022/03/09 09:48:13;;;;;;;22.73;11.80;;;5.70;64.80;;;;;;5050735;28;20027;-65
2022/03/09 09:50:42;;;;;;;15.13;10.18;;;5.70;64.70;;;;;;5051951;28;20083;-65
2022/03/09 09:53:10;;;;;;;18.08;10.02;;;;;;;;;;5051064;28;20025;-65
2022/03/09 09:55:36;;;;;;;21.67;12.02;;;5.90;63.90;;;;;;5051656;28;20035;-65
2022/03/09 09:58:04;;;;;;;19.27;10.95;;;6.00;63.60;;;;;;5051140;28;20033;-65
2022/03/09 10:00:30;;;;;;;21.58;11.82;;;6.10;63.90;;;;;;5051896;28;20107;-65
2022/03/09 10:02:56;;;;;;;18.60;11.32;;;6.30;63.30;;;;;;5071039;28;20042;-65
2022/03/09 10:05:22;;;;;;;20.10;11.00;;;6.40;63.00;;;;;;5069501;28;20032;-65
2022/03/09 10:08:14;;;;;;;20.85;12.45;;;6.60;62.60;;;;;;5071456;28;20031;-65
2022/03/09 10:10:42;;;;;;;16.98;10.43;;;6.70;62.00;;;;;;5067067;28;20045;-65
2022/03/09 10:13:20;;;;;;;19.33;10.32;;;6.80;62.30;;;;;;5068697;28;20025;-65
2022/03/09 10:15:48;;;;;;;25.33;11.05;;;6.80;61.50;;;;;;5071444;28;20075;-65
2022/03/09 10:18:21;;;;;;;24.25;10.88;;;6.90;61.50;;;;;;5070371;28;20028;-65
2022/03/09 10:20:49;;;;;;;28.65;11.73;;;6.90;61.70;;;;;;5071540;28;20043;-66
2022/03/09 10:23:17;;;;;;;20.83;11.10;;;7.00;61.30;;;;;;5070305;28;20108;-65
2022/03/09 10:25:43;;;;;;;22.25;11.45;;;7.00;61.40;;;;;;5070913;28;20039;-65
2022/03/09 10:28:11;;;;;;;21.83;11.98;;;7.20;60.80;;;;;;5070500;28;20021;-65
2022/03/09 10:30:39;;;;;;;26.50;11.43;;;7.30;60.20;;;;;;5071106;28;20103;-65
2022/03/09 10:33:08;;;;;;;22.70;12.02;;;7.30;60.10;;;;;;5070537;28;20057;-65
2022/03/09 10:35:34;;;;;;;22.17;11.10;;;7.40;59.60;;;;;;5070787;28;20359;-65
2022/03/09 10:38:05;;;;;;;29.60;12.13;;;7.50;59.50;;;;;;5071084;28;20039;-65
2022/03/09 10:40:33;;;;;;;22.67;12.25;;;7.60;58.90;;;;;;5073416;28;20071;-65
2022/03/09 10:43:17;;;;;;;21.77;12.02;;;7.70;58.50;;;;;;5075361;28;20117;-65
2022/03/09 10:46:11;;;;;;;19.58;11.02;;;7.80;58.10;;;;;;5035192;28;20049;-65
2022/03/09 10:48:52;;;;;;;29.08;12.38;;;8.00;58.70;;;;;;5035185;28;20075;-66
2022/03/09 10:51:30;;;;;;;25.27;12.75;;;8.10;57.80;;;;;;5034389;28;20029;-66
2022/03/09 10:53:57;;;;;;;24.58;11.85;;;8.20;57.00;;;;;;5035281;28;20086;-66
2022/03/09 10:56:23;;;;;;;23.98;12.98;;;8.30;56.50;;;;;;5033020;28;20439;-66
2022/03/09 10:58:49;;;;;;;24.58;13.10;;;8.40;56.00;;;;;;5052930;28;20087;-65
2022/03/09 11:01:20;;;;;;;21.83;12.07;;;;;;;;;;5072920;28;20466;-65
2022/03/09 11:03:46;;;;;;;21.08;12.32;;;8.70;54.50;;;;;;5074826;28;20028;-66
2022/03/09 11:06:12;;;;;;;29.17;12.50;;;8.80;54.00;;;;;;5073846;28;20036;-65
2022/03/09 11:08:39;;;;;;;20.55;12.45;;;8.90;53.30;;;;;;5074465;28;20151;-66
2022/03/09 11:11:06;;;;;;;35.95;16.48;;;9.00;53.50;;;;;;5074169;28;20037;-66
2022/03/09 11:13:34;;;;;;;46.67;15.60;;;9.10;52.70;;;;;;5074580;28;20048;-66
2022/03/09 11:16:00;;;;;;;31.85;15.85;;;9.20;51.70;;;;;;5074732;28;20025;-66
2022/03/09 11:18:30;;;;;;;40.78;14.95;;;9.20;51.60;;;;;;5073984;28;20029;-66
2022/03/09 11:20:57;;;;;;;;;;;9.50;52.50;;;;;;5074879;28;20048;-66
2022/03/09 11:23:24;;;;;;;25.65;15.30;;;9.50;49.40;;;;;;5073711;28;19907;-67
2022/03/09 11:25:57;;;;;;;28.67;15.05;;;9.50;47.80;;;;;;5074693;28;20028;-66
2022/03/09 11:28:30;;;;;;;24.40;14.55;;;9.50;47.80;;;;;;5072627;28;20024;-66
2022/03/09 11:31:01;;;;;;;23.40;14.63;;;9.50;48.00;;;;;;5057572;28;20028;-65
2022/03/09 11:33:50;;;;;;;22.70;14.27;;;9.50;48.00;;;;;;5073866;28;20036;-66
2022/03/09 11:36:23;;;;;;;22.73;14.38;;;9.50;48.10;;;;;;5073602;28;20038;-66
2022/03/09 11:38:52;;;;;;;22.70;13.90;;;9.60;48.30;;;;;;5074300;28;20035;-66
2022/03/09 11:41:32;;;;;;;23.77;13.10;;;9.70;47.80;;;;;;5073375;28;20029;-65
2022/03/09 11:44:19;;;;;;;21.55;13.57;;;9.80;47.50;;;;;;5068023;28;20062;-66
2022/03/09 11:47:00;;;;;;;21.90;13.25;;;9.80;47.60;;;;;;5054374;28;20351;-66
2022/03/09 11:49:49;;;;;;;;;;;10.00;46.80;;;;;;5053525;28;20054;-66
2022/03/09 11:52:31;;;;;;;19.45;12.60;;;10.10;47.40;;;;;;5052298;28;19904;-66
2022/03/09 11:55:02;;;;;;;23.70;13.85;;;10.30;45.60;;;;;;5053686;28;20028;-66
2022/03/09 11:57:59;;;;;;;18.30;12.60;;;10.50;46.10;;;;;;5053397;28;20059;-66
2022/03/09 12:00:26;;;;;;;23.40;14.38;;;10.70;45.50;;;;;;5046942;28;20132;-66
2022/03/09 12:02:56;;;;;;;22.85;14.23;;;11.20;42.20;;;;;;5073043;28;20043;-66
2022/03/09 12:05:25;;;;;;;21.70;14.30;;;11.40;41.80;;;;;;5071689;28;20032;-66
2022/03/09 12:07:52;;;;;;;23.13;14.10;;;11.80;41.30;;;;;;5073578;28;20060;-66
2022/03/09 12:10:22;;;;;;;20.92;13.25;;;12.20;39.70;;;;;;5072247;28;20021;-66
2022/03/09 12:13:14;;;;;;;23.13;13.68;;;12.50;40.30;;;;;;5073518;28;20039;-66
2022/03/09 12:16:16;;;;;;;19.75;13.65;;;12.80;39.50;;;;;;5073478;28;20120;-66
2022/03/09 12:19:00;;;;;;;21.67;13.27;;;13.00;39.40;;;;;;5073920;28;20024;-65
2022/03/09 12:21:26;;;;;;;18.05;13.32;;;13.30;39.50;;;;;;5072901;28;20610;-65
2022/03/09 12:24:00;;;;;;;22.08;14.35;;;13.60;38.30;;;;;;5073330;28;20032;-66
2022/03/09 12:26:44;;;;;;;22.83;13.77;;;13.70;38.70;;;;;;5072684;28;20040;-67
2022/03/09 12:29:22;;;;;;;21.45;14.25;;;14.10;37.80;;;;;;5072332;28;20150;-66
2022/03/09 12:32:07;;;;;;;18.45;12.65;;;14.30;37.90;;;;;;5073210;28;20090;-66
2022/03/09 12:34:42;;;;;;;20.45;13.55;;;14.40;36.70;;;;;;5073075;28;20033;-66
2022/03/09 12:37:16;;;;;;;27.17;13.73;;;14.50;36.90;;;;;;5072363;28;20032;-66
2022/03/09 12:39:57;;;;;;;19.63;13.32;;;14.40;38.20;;;;;;5073026;28;20052;-67
2022/03/09 12:42:23;;;;;;;18.95;13.55;;;14.50;38.20;;;;;;5072868;28;20032;-67